sensor_id;sensor_type;location;lat;lon;timestamp;P1;durP1;ratioP1;P2;durP2;ratioP2
8626;SDS011;4351;51.422;6.794;2022-07-23T00:02:06;8.80;;;6.37;;
8626;SDS011;4351;51.422;6.794;2022-07-23T00:04:34;8.37;;;5.93;;
8626;SDS011;4351;51.422;6.794;2022-07-23T00:07:03;9.63;;;5.80;;
8626;SDS011;4351;51.422;6.794;2022-07-23T00:09:31;9.00;;;6.03;;
8626;SDS011;4351;51.422;6.794;2022-07-23T00:12:00;10.83;;;6.20;;
8626;SDS011;4351;51.422;6.794;2022-07-23T00:14:29;8.77;;;6.30;;
8626;SDS011;4351;51.422;6.794;2022-07-23T00:16:58;8.53;;;6.30;;
8626;SDS011;4351;51.422;6.794;2022-07-23T00:19:26;12.57;;;6.67;;
8626;SDS011;4351;51.422;6.794;2022-07-23T00:21:55;8.00;;;6.30;;
8626;SDS011;4351;51.422;6.794;2022-07-23T00:24:23;9.47;;;6.90;;
8626;SDS011;4351;51.422;6.794;2022-07-23T00:26:51;9.40;;;5.97;;
8626;SDS011;4351;51.422;6.794;2022-07-23T00:29:20;8.33;;;6.60;;
8626;SDS011;4351;51.422;6.794;2022-07-23T00:31:49;8.33;;;6.03;;
8626;SDS011;4351;51.422;6.794;2022-07-23T00:34:17;9.10;;;6.60;;
8626;SDS011;4351;51.422;6.794;2022-07-23T00:36:46;7.43;;;5.70;;
8626;SDS011;4351;51.422;6.794;2022-07-23T00:39:14;7.23;;;5.30;;
8626;SDS011;4351;51.422;6.794;2022-07-23T00:41:42;9.20;;;6.30;;
8626;SDS011;4351;51.422;6.794;2022-07-23T00:44:14;10.37;;;5.80;;
8626;SDS011;4351;51.422;6.794;2022-07-23T00:46:46;9.73;;;6.07;;
8626;SDS011;4351;51.422;6.794;2022-07-23T00:49:17;10.43;;;5.80;;
8626;SDS011;4351;51.422;6.794;2022-07-23T00:51:45;9.20;;;6.80;;
8626;SDS011;4351;51.422;6.794;2022-07-23T00:54:14;10.20;;;6.10;;
8626;SDS011;4351;51.422;6.794;2022-07-23T00:56:43;12.93;;;6.73;;
8626;SDS011;4351;51.422;6.794;2022-07-23T00:59:12;8.47;;;6.00;;
8626;SDS011;4351;51.422;6.794;2022-07-23T01:01:40;7.03;;;5.60;;
8626;SDS011;4351;51.422;6.794;2022-07-23T01:04:10;9.83;;;6.07;;
8626;SDS011;4351;51.422;6.794;2022-07-23T01:06:40;9.43;;;6.60;;
8626;SDS011;4351;51.422;6.794;2022-07-23T01:09:08;8.40;;;6.00;;
8626;SDS011;4351;51.422;6.794;2022-07-23T01:11:37;11.40;;;6.67;;
8626;SDS011;4351;51.422;6.794;2022-07-23T01:14:10;10.20;;;7.13;;
8626;SDS011;4351;51.422;6.794;2022-07-23T01:16:40;10.60;;;6.90;;
8626;SDS011;4351;51.422;6.794;2022-07-23T01:19:09;8.57;;;6.47;;
8626;SDS011;4351;51.422;6.794;2022-07-23T01:21:38;10.50;;;7.40;;
8626;SDS011;4351;51.422;6.794;2022-07-23T01:24:11;9.97;;;6.73;;
8626;SDS011;4351;51.422;6.794;2022-07-23T01:26:49;8.93;;;6.67;;
8626;SDS011;4351;51.422;6.794;2022-07-23T01:29:18;8.43;;;6.60;;
8626;SDS011;4351;51.422;6.794;2022-07-23T01:31:48;9.57;;;6.70;;
8626;SDS011;4351;51.422;6.794;2022-07-23T01:34:16;8.73;;;6.50;;
8626;SDS011;4351;51.422;6.794;2022-07-23T01:36:45;10.03;;;7.40;;
8626;SDS011;4351;51.422;6.794;2022-07-23T01:39:17;9.90;;;7.60;;
8626;SDS011;4351;51.422;6.794;2022-07-23T01:41:46;11.57;;;6.90;;
8626;SDS011;4351;51.422;6.794;2022-07-23T01:44:18;11.10;;;6.83;;
8626;SDS011;4351;51.422;6.794;2022-07-23T01:46:46;10.87;;;7.20;;
8626;SDS011;4351;51.422;6.794;2022-07-23T01:49:16;9.03;;;6.97;;
8626;SDS011;4351;51.422;6.794;2022-07-23T01:52:03;11.63;;;7.47;;
8626;SDS011;4351;51.422;6.794;2022-07-23T01:54:42;10.87;;;7.07;;
8626;SDS011;4351;51.422;6.794;2022-07-23T01:57:11;8.57;;;6.53;;
8626;SDS011;4351;51.422;6.794;2022-07-23T01:59:39;9.73;;;6.63;;
8626;SDS011;4351;51.422;6.794;2022-07-23T02:02:08;13.93;;;7.57;;
8626;SDS011;4351;51.422;6.794;2022-07-23T02:04:37;8.47;;;6.47;;
8626;SDS011;4351;51.422;6.794;2022-07-23T02:07:05;10.57;;;7.13;;
8626;SDS011;4351;51.422;6.794;2022-07-23T02:09:33;11.07;;;8.13;;
8626;SDS011;4351;51.422;6.794;2022-07-23T02:12:03;11.77;;;7.87;;
8626;SDS011;4351;51.422;6.794;2022-07-23T02:14:32;13.87;;;7.73;;
8626;SDS011;4351;51.422;6.794;2022-07-23T02:17:04;9.20;;;6.43;;
8626;SDS011;4351;51.422;6.794;2022-07-23T02:19:34;12.77;;;7.10;;
8626;SDS011;4351;51.422;6.794;2022-07-23T02:22:02;10.20;;;7.20;;
8626;SDS011;4351;51.422;6.794;2022-07-23T02:24:30;10.10;;;7.93;;
8626;SDS011;4351;51.422;6.794;2022-07-23T02:26:59;9.97;;;7.57;;
8626;SDS011;4351;51.422;6.794;2022-07-23T02:29:28;9.30;;;7.70;;
8626;SDS011;4351;51.422;6.794;2022-07-23T02:31:57;9.87;;;6.63;;
8626;SDS011;4351;51.422;6.794;2022-07-23T02:34:25;11.50;;;7.63;;
8626;SDS011;4351;51.422;6.794;2022-07-23T02:36:53;10.60;;;7.13;;
8626;SDS011;4351;51.422;6.794;2022-07-23T02:39:22;9.47;;;6.80;;
8626;SDS011;4351;51.422;6.794;2022-07-23T02:41:50;10.23;;;6.53;;
8626;SDS011;4351;51.422;6.794;2022-07-23T02:44:18;9.93;;;7.43;;
8626;SDS011;4351;51.422;6.794;2022-07-23T02:46:52;12.87;;;7.93;;
8626;SDS011;4351;51.422;6.794;2022-07-23T02:49:20;11.13;;;8.13;;
8626;SDS011;4351;51.422;6.794;2022-07-23T02:51:53;9.10;;;6.80;;
8626;SDS011;4351;51.422;6.794;2022-07-23T02:54:22;9.77;;;6.43;;
8626;SDS011;4351;51.422;6.794;2022-07-23T02:56:51;9.03;;;7.10;;
8626;SDS011;4351;51.422;6.794;2022-07-23T02:59:19;9.47;;;7.00;;
8626;SDS011;4351;51.422;6.794;2022-07-23T03:01:48;11.57;;;7.63;;
8626;SDS011;4351;51.422;6.794;2022-07-23T03:04:19;9.70;;;7.40;;
8626;SDS011;4351;51.422;6.794;2022-07-23T03:06:47;11.13;;;8.00;;
8626;SDS011;4351;51.422;6.794;2022-07-23T03:09:15;10.17;;;8.30;;
8626;SDS011;4351;51.422;6.794;2022-07-23T03:11:43;11.47;;;7.60;;
8626;SDS011;4351;51.422;6.794;2022-07-23T03:14:12;11.27;;;7.83;;
8626;SDS011;4351;51.422;6.794;2022-07-23T03:16:42;15.07;;;7.27;;
8626;SDS011;4351;51.422;6.794;2022-07-23T03:19:11;8.50;;;6.80;;
8626;SDS011;4351;51.422;6.794;2022-07-23T03:21:41;9.87;;;7.27;;
8626;SDS011;4351;51.422;6.794;2022-07-23T03:24:11;10.63;;;7.20;;
8626;SDS011;4351;51.422;6.794;2022-07-23T03:26:39;7.10;;;6.20;;
8626;SDS011;4351;51.422;6.794;2022-07-23T03:29:07;11.20;;;7.37;;
8626;SDS011;4351;51.422;6.794;2022-07-23T03:31:36;9.70;;;7.10;;
8626;SDS011;4351;51.422;6.794;2022-07-23T03:34:04;8.47;;;7.00;;
8626;SDS011;4351;51.422;6.794;2022-07-23T03:36:32;10.00;;;7.23;;
8626;SDS011;4351;51.422;6.794;2022-07-23T03:39:03;10.20;;;7.20;;
8626;SDS011;4351;51.422;6.794;2022-07-23T03:41:31;10.13;;;7.20;;
8626;SDS011;4351;51.422;6.794;2022-07-23T03:44:00;10.13;;;7.80;;
8626;SDS011;4351;51.422;6.794;2022-07-23T03:46:28;9.33;;;7.30;;
8626;SDS011;4351;51.422;6.794;2022-07-23T03:48:56;11.30;;;7.37;;
8626;SDS011;4351;51.422;6.794;2022-07-23T03:51:25;9.87;;;7.27;;
8626;SDS011;4351;51.422;6.794;2022-07-23T03:53:53;9.07;;;7.60;;
8626;SDS011;4351;51.422;6.794;2022-07-23T03:56:23;9.40;;;7.30;;
8626;SDS011;4351;51.422;6.794;2022-07-23T03:58:52;9.70;;;7.60;;
8626;SDS011;4351;51.422;6.794;2022-07-23T04:01:20;10.97;;;6.87;;
8626;SDS011;4351;51.422;6.794;2022-07-23T04:03:49;10.47;;;7.53;;
8626;SDS011;4351;51.422;6.794;2022-07-23T04:06:17;14.90;;;7.87;;
8626;SDS011;4351;51.422;6.794;2022-07-23T04:08:46;11.43;;;7.47;;
8626;SDS011;4351;51.422;6.794;2022-07-23T04:11:14;10.10;;;7.37;;
8626;SDS011;4351;51.422;6.794;2022-07-23T04:13:44;9.83;;;7.60;;
8626;SDS011;4351;51.422;6.794;2022-07-23T04:16:13;9.97;;;7.90;;
8626;SDS011;4351;51.422;6.794;2022-07-23T04:18:41;9.60;;;7.57;;
8626;SDS011;4351;51.422;6.794;2022-07-23T04:21:15;10.93;;;7.80;;
8626;SDS011;4351;51.422;6.794;2022-07-23T04:23:44;10.30;;;7.33;;
8626;SDS011;4351;51.422;6.794;2022-07-23T04:26:13;14.67;;;7.67;;
8626;SDS011;4351;51.422;6.794;2022-07-23T04:28:47;11.07;;;7.87;;
8626;SDS011;4351;51.422;6.794;2022-07-23T04:31:15;9.27;;;7.10;;
8626;SDS011;4351;51.422;6.794;2022-07-23T04:33:44;11.30;;;7.13;;
8626;SDS011;4351;51.422;6.794;2022-07-23T04:36:12;10.30;;;7.73;;
8626;SDS011;4351;51.422;6.794;2022-07-23T04:38:41;11.77;;;7.33;;
8626;SDS011;4351;51.422;6.794;2022-07-23T04:41:09;11.60;;;7.13;;
8626;SDS011;4351;51.422;6.794;2022-07-23T04:43:38;8.83;;;7.47;;
8626;SDS011;4351;51.422;6.794;2022-07-23T04:46:08;9.63;;;7.73;;
8626;SDS011;4351;51.422;6.794;2022-07-23T04:48:44;8.53;;;7.63;;
8626;SDS011;4351;51.422;6.794;2022-07-23T04:51:12;10.27;;;7.30;;
8626;SDS011;4351;51.422;6.794;2022-07-23T04:53:40;9.83;;;7.37;;
8626;SDS011;4351;51.422;6.794;2022-07-23T04:56:09;8.57;;;7.23;;
8626;SDS011;4351;51.422;6.794;2022-07-23T04:58:37;12.27;;;8.00;;
8626;SDS011;4351;51.422;6.794;2022-07-23T05:01:07;10.40;;;8.00;;
8626;SDS011;4351;51.422;6.794;2022-07-23T05:03:36;12.83;;;8.27;;
8626;SDS011;4351;51.422;6.794;2022-07-23T05:06:05;12.27;;;7.80;;
8626;SDS011;4351;51.422;6.794;2022-07-23T05:08:33;13.67;;;8.67;;
8626;SDS011;4351;51.422;6.794;2022-07-23T05:11:02;10.43;;;7.07;;
8626;SDS011;4351;51.422;6.794;2022-07-23T05:13:30;12.60;;;7.90;;
8626;SDS011;4351;51.422;6.794;2022-07-23T05:16:00;13.30;;;8.50;;
8626;SDS011;4351;51.422;6.794;2022-07-23T05:18:30;10.47;;;7.90;;
8626;SDS011;4351;51.422;6.794;2022-07-23T05:20:59;11.07;;;8.10;;
8626;SDS011;4351;51.422;6.794;2022-07-23T05:23:28;14.57;;;9.27;;
8626;SDS011;4351;51.422;6.794;2022-07-23T05:25:56;11.90;;;9.67;;
8626;SDS011;4351;51.422;6.794;2022-07-23T05:28:26;12.93;;;9.00;;
8626;SDS011;4351;51.422;6.794;2022-07-23T05:31:01;15.87;;;9.40;;
8626;SDS011;4351;51.422;6.794;2022-07-23T07:10:06;18.17;;;14.60;;
8626;SDS011;4351;51.422;6.794;2022-07-23T09:57:36;8.10;;;4.67;;
8626;SDS011;4351;51.422;6.794;2022-07-23T10:04:32;6.53;;;3.93;;
8626;SDS011;4351;51.422;6.794;2022-07-23T10:16:30;8.03;;;3.40;;
8626;SDS011;4351;51.422;6.794;2022-07-23T10:22:12;5.70;;;3.50;;
8626;SDS011;4351;51.422;6.794;2022-07-23T10:25:04;6.87;;;3.07;;
8626;SDS011;4351;51.422;6.794;2022-07-23T10:28:04;6.70;;;3.60;;
8626;SDS011;4351;51.422;6.794;2022-07-23T10:30:45;5.47;;;3.73;;
8626;SDS011;4351;51.422;6.794;2022-07-23T10:33:27;7.77;;;3.87;;
8626;SDS011;4351;51.422;6.794;2022-07-23T10:36:07;5.53;;;3.07;;
8626;SDS011;4351;51.422;6.794;2022-07-23T10:38:48;3.77;;;2.70;;
8626;SDS011;4351;51.422;6.794;2022-07-23T10:41:30;8.60;;;3.40;;
8626;SDS011;4351;51.422;6.794;2022-07-23T10:44:07;6.90;;;3.03;;
8626;SDS011;4351;51.422;6.794;2022-07-23T10:47:20;6.23;;;2.70;;
8626;SDS011;4351;51.422;6.794;2022-07-23T10:50:29;7.33;;;3.53;;
8626;SDS011;4351;51.422;6.794;2022-07-23T10:53:08;5.37;;;3.53;;
8626;SDS011;4351;51.422;6.794;2022-07-23T10:55:47;6.10;;;3.40;;
8626;SDS011;4351;51.422;6.794;2022-07-23T10:58:18;6.00;;;3.30;;
8626;SDS011;4351;51.422;6.794;2022-07-23T11:00:50;6.60;;;3.00;;
8626;SDS011;4351;51.422;6.794;2022-07-23T11:03:29;7.07;;;3.63;;
8626;SDS011;4351;51.422;6.794;2022-07-23T11:06:11;4.30;;;2.83;;
8626;SDS011;4351;51.422;6.794;2022-07-23T11:09:23;7.93;;;3.00;;
8626;SDS011;4351;51.422;6.794;2022-07-23T11:21:59;5.27;;;2.40;;
8626;SDS011;4351;51.422;6.794;2022-07-23T11:24:27;4.80;;;2.27;;
8626;SDS011;4351;51.422;6.794;2022-07-23T11:30:08;4.87;;;2.77;;
8626;SDS011;4351;51.422;6.794;2022-07-23T11:33:15;6.93;;;2.60;;
8626;SDS011;4351;51.422;6.794;2022-07-23T11:35:47;4.20;;;2.90;;
8626;SDS011;4351;51.422;6.794;2022-07-23T11:38:46;5.10;;;2.63;;
8626;SDS011;4351;51.422;6.794;2022-07-23T11:41:53;4.87;;;2.77;;
8626;SDS011;4351;51.422;6.794;2022-07-23T11:44:31;3.13;;;2.40;;
8626;SDS011;4351;51.422;6.794;2022-07-23T11:47:28;5.40;;;2.27;;
8626;SDS011;4351;51.422;6.794;2022-07-23T11:51:21;6.33;;;3.20;;
8626;SDS011;4351;51.422;6.794;2022-07-23T11:57:38;3.17;;;2.27;;
8626;SDS011;4351;51.422;6.794;2022-07-23T12:01:58;7.27;;;2.63;;
8626;SDS011;4351;51.422;6.794;2022-07-23T12:05:02;4.07;;;2.17;;
8626;SDS011;4351;51.422;6.794;2022-07-23T12:07:41;4.57;;;2.53;;
8626;SDS011;4351;51.422;6.794;2022-07-23T12:15:56;4.23;;;2.70;;
8626;SDS011;4351;51.422;6.794;2022-07-23T12:18:40;4.50;;;2.60;;
8626;SDS011;4351;51.422;6.794;2022-07-23T12:21:39;3.97;;;2.47;;
8626;SDS011;4351;51.422;6.794;2022-07-23T12:24:08;4.23;;;2.60;;
8626;SDS011;4351;51.422;6.794;2022-07-23T12:33:39;4.30;;;2.50;;
8626;SDS011;4351;51.422;6.794;2022-07-23T12:38:19;5.30;;;2.20;;
8626;SDS011;4351;51.422;6.794;2022-07-23T12:39:55;3.93;;;2.30;;
8626;SDS011;4351;51.422;6.794;2022-07-23T12:43:18;4.80;;;2.60;;
8626;SDS011;4351;51.422;6.794;2022-07-23T12:49:51;3.73;;;2.30;;
8626;SDS011;4351;51.422;6.794;2022-07-23T12:52:28;4.20;;;2.47;;
8626;SDS011;4351;51.422;6.794;2022-07-23T12:56:00;3.47;;;2.60;;
8626;SDS011;4351;51.422;6.794;2022-07-23T12:58:48;4.70;;;2.60;;
8626;SDS011;4351;51.422;6.794;2022-07-23T13:04:50;3.17;;;2.60;;
8626;SDS011;4351;51.422;6.794;2022-07-23T13:07:26;4.10;;;2.40;;
8626;SDS011;4351;51.422;6.794;2022-07-23T13:11:15;5.47;;;2.73;;
8626;SDS011;4351;51.422;6.794;2022-07-23T13:13:57;3.40;;;2.90;;
8626;SDS011;4351;51.422;6.794;2022-07-23T13:19:56;3.23;;;2.57;;
8626;SDS011;4351;51.422;6.794;2022-07-23T13:25:05;4.50;;;2.60;;
8626;SDS011;4351;51.422;6.794;2022-07-23T13:30:00;3.73;;;2.30;;
8626;SDS011;4351;51.422;6.794;2022-07-23T13:33:18;4.67;;;2.40;;
8626;SDS011;4351;51.422;6.794;2022-07-23T13:43:22;6.60;;;2.77;;
8626;SDS011;4351;51.422;6.794;2022-07-23T13:46:13;5.17;;;2.57;;
8626;SDS011;4351;51.422;6.794;2022-07-23T13:49:36;4.27;;;2.60;;
8626;SDS011;4351;51.422;6.794;2022-07-23T13:56:07;4.73;;;2.77;;
8626;SDS011;4351;51.422;6.794;2022-07-23T14:00:08;5.20;;;2.87;;
8626;SDS011;4351;51.422;6.794;2022-07-23T14:06:22;3.00;;;2.70;;
8626;SDS011;4351;51.422;6.794;2022-07-23T14:14:03;3.57;;;3.00;;
8626;SDS011;4351;51.422;6.794;2022-07-23T14:19:03;3.73;;;2.87;;
8626;SDS011;4351;51.422;6.794;2022-07-23T14:21:59;4.93;;;2.80;;
8626;SDS011;4351;51.422;6.794;2022-07-23T14:26:02;4.30;;;3.20;;
8626;SDS011;4351;51.422;6.794;2022-07-23T14:28:51;3.50;;;2.80;;
8626;SDS011;4351;51.422;6.794;2022-07-23T14:31:58;3.77;;;2.57;;
8626;SDS011;4351;51.422;6.794;2022-07-23T14:34:53;4.47;;;2.50;;
8626;SDS011;4351;51.422;6.794;2022-07-23T14:41:50;4.53;;;2.80;;
8626;SDS011;4351;51.422;6.794;2022-07-23T14:45:12;5.67;;;3.13;;
8626;SDS011;4351;51.422;6.794;2022-07-23T14:52:07;4.57;;;3.07;;
8626;SDS011;4351;51.422;6.794;2022-07-23T14:58:02;4.17;;;2.97;;
8626;SDS011;4351;51.422;6.794;2022-07-23T15:01:40;4.23;;;2.90;;
8626;SDS011;4351;51.422;6.794;2022-07-23T15:05:05;3.10;;;2.80;;
8626;SDS011;4351;51.422;6.794;2022-07-23T15:12:05;3.37;;;2.87;;
8626;SDS011;4351;51.422;6.794;2022-07-23T15:15:18;3.17;;;2.53;;
8626;SDS011;4351;51.422;6.794;2022-07-23T15:19:04;3.70;;;2.77;;
8626;SDS011;4351;51.422;6.794;2022-07-23T15:29:38;2.87;;;2.50;;
8626;SDS011;4351;51.422;6.794;2022-07-23T15:32:38;4.23;;;3.00;;
8626;SDS011;4351;51.422;6.794;2022-07-23T15:47:35;5.43;;;3.10;;
8626;SDS011;4351;51.422;6.794;2022-07-23T15:50:20;5.27;;;2.70;;
8626;SDS011;4351;51.422;6.794;2022-07-23T15:54:16;4.73;;;2.80;;
8626;SDS011;4351;51.422;6.794;2022-07-23T15:57:52;4.50;;;2.93;;
8626;SDS011;4351;51.422;6.794;2022-07-23T16:00:21;3.53;;;2.77;;
8626;SDS011;4351;51.422;6.794;2022-07-23T16:04:08;3.30;;;2.90;;
8626;SDS011;4351;51.422;6.794;2022-07-23T16:12:33;7.17;;;4.20;;
8626;SDS011;4351;51.422;6.794;2022-07-23T16:15:58;3.77;;;3.23;;
8626;SDS011;4351;51.422;6.794;2022-07-23T16:22:06;5.83;;;3.93;;
8626;SDS011;4351;51.422;6.794;2022-07-23T16:24:52;4.63;;;3.30;;
8626;SDS011;4351;51.422;6.794;2022-07-23T16:27:22;5.80;;;3.20;;
8626;SDS011;4351;51.422;6.794;2022-07-23T16:30:18;4.77;;;3.20;;
8626;SDS011;4351;51.422;6.794;2022-07-23T16:36:39;4.90;;;3.67;;
8626;SDS011;4351;51.422;6.794;2022-07-23T16:39:22;6.13;;;3.57;;
8626;SDS011;4351;51.422;6.794;2022-07-23T16:43:29;5.70;;;3.20;;
8626;SDS011;4351;51.422;6.794;2022-07-23T16:46:05;5.57;;;3.40;;
8626;SDS011;4351;51.422;6.794;2022-07-23T16:49:41;6.27;;;3.23;;
8626;SDS011;4351;51.422;6.794;2022-07-23T16:52:12;3.67;;;2.83;;
8626;SDS011;4351;51.422;6.794;2022-07-23T16:55:40;4.20;;;3.50;;
8626;SDS011;4351;51.422;6.794;2022-07-23T16:59:19;4.87;;;3.03;;
8626;SDS011;4351;51.422;6.794;2022-07-23T17:05:57;3.73;;;3.40;;
8626;SDS011;4351;51.422;6.794;2022-07-23T17:09:38;6.27;;;3.90;;
8626;SDS011;4351;51.422;6.794;2022-07-23T17:20:21;4.10;;;3.23;;
8626;SDS011;4351;51.422;6.794;2022-07-23T17:24:10;3.43;;;3.13;;
8626;SDS011;4351;51.422;6.794;2022-07-23T17:30:25;5.93;;;3.53;;
8626;SDS011;4351;51.422;6.794;2022-07-23T17:33:18;4.17;;;3.37;;
8626;SDS011;4351;51.422;6.794;2022-07-23T17:35:55;3.60;;;3.27;;
8626;SDS011;4351;51.422;6.794;2022-07-23T17:38:33;3.87;;;3.00;;
8626;SDS011;4351;51.422;6.794;2022-07-23T17:45:02;4.30;;;3.03;;
8626;SDS011;4351;51.422;6.794;2022-07-23T17:47:58;3.57;;;3.17;;
8626;SDS011;4351;51.422;6.794;2022-07-23T17:50:48;3.43;;;3.13;;
8626;SDS011;4351;51.422;6.794;2022-07-23T17:58:55;4.83;;;3.37;;
8626;SDS011;4351;51.422;6.794;2022-07-23T18:02:24;4.40;;;3.37;;
8626;SDS011;4351;51.422;6.794;2022-07-23T18:05:19;3.77;;;3.33;;
8626;SDS011;4351;51.422;6.794;2022-07-23T18:08:00;3.50;;;2.80;;
8626;SDS011;4351;51.422;6.794;2022-07-23T18:15:36;7.13;;;3.60;;
8626;SDS011;4351;51.422;6.794;2022-07-23T18:23:25;5.73;;;3.47;;
8626;SDS011;4351;51.422;6.794;2022-07-23T18:25:54;5.37;;;3.30;;
8626;SDS011;4351;51.422;6.794;2022-07-23T18:28:25;4.37;;;3.23;;
8626;SDS011;4351;51.422;6.794;2022-07-23T18:31:05;4.50;;;3.40;;
8626;SDS011;4351;51.422;6.794;2022-07-23T18:34:03;3.83;;;3.33;;
8626;SDS011;4351;51.422;6.794;2022-07-23T18:36:42;3.40;;;2.93;;
8626;SDS011;4351;51.422;6.794;2022-07-23T18:43:55;4.33;;;3.47;;
8626;SDS011;4351;51.422;6.794;2022-07-23T18:53:13;5.03;;;3.37;;
8626;SDS011;4351;51.422;6.794;2022-07-23T18:55:23;5.10;;;3.47;;
8626;SDS011;4351;51.422;6.794;2022-07-23T18:58:01;5.80;;;3.77;;
8626;SDS011;4351;51.422;6.794;2022-07-23T19:01:03;4.07;;;3.33;;
8626;SDS011;4351;51.422;6.794;2022-07-23T19:03:36;4.10;;;3.40;;
8626;SDS011;4351;51.422;6.794;2022-07-23T19:06:13;4.10;;;3.43;;
8626;SDS011;4351;51.422;6.794;2022-07-23T19:16:09;4.27;;;3.70;;
8626;SDS011;4351;51.422;6.794;2022-07-23T19:18:47;4.67;;;3.80;;
8626;SDS011;4351;51.422;6.794;2022-07-23T19:25:54;6.97;;;4.07;;
8626;SDS011;4351;51.422;6.794;2022-07-23T19:41:56;6.90;;;3.80;;
8626;SDS011;4351;51.422;6.794;2022-07-23T19:45:46;4.67;;;3.40;;
8626;SDS011;4351;51.422;6.794;2022-07-23T19:55:57;5.03;;;3.80;;
8626;SDS011;4351;51.422;6.794;2022-07-23T19:58:34;5.07;;;3.67;;
8626;SDS011;4351;51.422;6.794;2022-07-23T20:02:22;5.67;;;3.87;;
8626;SDS011;4351;51.422;6.794;2022-07-23T20:06:10;6.77;;;4.00;;
8626;SDS011;4351;51.422;6.794;2022-07-23T20:19:41;5.40;;;3.90;;
8626;SDS011;4351;51.422;6.794;2022-07-23T20:22:19;7.40;;;3.87;;
8626;SDS011;4351;51.422;6.794;2022-07-23T20:24:56;5.17;;;4.00;;
8626;SDS011;4351;51.422;6.794;2022-07-23T20:27:35;6.37;;;4.07;;
8626;SDS011;4351;51.422;6.794;2022-07-23T20:30:13;7.70;;;4.40;;
8626;SDS011;4351;51.422;6.794;2022-07-23T20:32:50;6.97;;;4.33;;
8626;SDS011;4351;51.422;6.794;2022-07-23T20:35:22;6.43;;;4.17;;
8626;SDS011;4351;51.422;6.794;2022-07-23T20:38:11;5.47;;;4.13;;
8626;SDS011;4351;51.422;6.794;2022-07-23T20:45:07;6.47;;;4.10;;
8626;SDS011;4351;51.422;6.794;2022-07-23T20:47:36;5.90;;;3.87;;
8626;SDS011;4351;51.422;6.794;2022-07-23T20:50:06;6.37;;;4.47;;
8626;SDS011;4351;51.422;6.794;2022-07-23T20:52:40;5.40;;;4.20;;
8626;SDS011;4351;51.422;6.794;2022-07-23T20:55:09;5.77;;;4.30;;
8626;SDS011;4351;51.422;6.794;2022-07-23T20:57:38;5.30;;;4.10;;
8626;SDS011;4351;51.422;6.794;2022-07-23T21:00:13;7.57;;;4.80;;
8626;SDS011;4351;51.422;6.794;2022-07-23T21:03:12;6.47;;;4.37;;
8626;SDS011;4351;51.422;6.794;2022-07-23T21:06:19;5.47;;;4.53;;
8626;SDS011;4351;51.422;6.794;2022-07-23T21:08:58;6.03;;;4.47;;
8626;SDS011;4351;51.422;6.794;2022-07-23T21:11:44;5.80;;;4.80;;
8626;SDS011;4351;51.422;6.794;2022-07-23T21:14:13;5.80;;;4.57;;
8626;SDS011;4351;51.422;6.794;2022-07-23T21:16:54;5.67;;;4.70;;
8626;SDS011;4351;51.422;6.794;2022-07-23T21:19:22;6.97;;;4.43;;
8626;SDS011;4351;51.422;6.794;2022-07-23T21:21:52;5.33;;;4.33;;
8626;SDS011;4351;51.422;6.794;2022-07-23T21:24:21;5.57;;;4.73;;
8626;SDS011;4351;51.422;6.794;2022-07-23T21:26:49;7.10;;;4.50;;
8626;SDS011;4351;51.422;6.794;2022-07-23T21:29:17;10.27;;;4.87;;
8626;SDS011;4351;51.422;6.794;2022-07-23T21:31:47;6.67;;;4.93;;
8626;SDS011;4351;51.422;6.794;2022-07-23T21:34:20;4.83;;;4.20;;
8626;SDS011;4351;51.422;6.794;2022-07-23T21:36:48;5.80;;;4.70;;
8626;SDS011;4351;51.422;6.794;2022-07-23T21:39:18;6.53;;;4.80;;
8626;SDS011;4351;51.422;6.794;2022-07-23T21:41:46;7.93;;;4.63;;
8626;SDS011;4351;51.422;6.794;2022-07-23T21:44:15;5.77;;;4.90;;
8626;SDS011;4351;51.422;6.794;2022-07-23T21:46:43;6.67;;;4.70;;
8626;SDS011;4351;51.422;6.794;2022-07-23T21:49:12;5.70;;;4.23;;
8626;SDS011;4351;51.422;6.794;2022-07-23T21:51:40;6.73;;;5.23;;
8626;SDS011;4351;51.422;6.794;2022-07-23T21:54:10;6.43;;;5.00;;
8626;SDS011;4351;51.422;6.794;2022-07-23T21:56:44;8.77;;;5.23;;
8626;SDS011;4351;51.422;6.794;2022-07-23T21:59:13;6.23;;;4.73;;
8626;SDS011;4351;51.422;6.794;2022-07-23T22:01:42;7.17;;;4.90;;
8626;SDS011;4351;51.422;6.794;2022-07-23T22:04:11;6.40;;;4.93;;
8626;SDS011;4351;51.422;6.794;2022-07-23T22:06:39;5.27;;;4.57;;
8626;SDS011;4351;51.422;6.794;2022-07-23T22:09:08;5.87;;;5.03;;
8626;SDS011;4351;51.422;6.794;2022-07-23T22:11:36;6.73;;;4.73;;
8626;SDS011;4351;51.422;6.794;2022-07-23T22:14:06;7.67;;;5.50;;
8626;SDS011;4351;51.422;6.794;2022-07-23T22:16:34;9.97;;;5.03;;
8626;SDS011;4351;51.422;6.794;2022-07-23T22:19:03;6.77;;;5.23;;
8626;SDS011;4351;51.422;6.794;2022-07-23T22:21:32;9.40;;;5.00;;
8626;SDS011;4351;51.422;6.794;2022-07-23T22:24:11;6.63;;;4.73;;
8626;SDS011;4351;51.422;6.794;2022-07-23T22:26:39;8.27;;;4.77;;
8626;SDS011;4351;51.422;6.794;2022-07-23T22:29:09;6.93;;;4.70;;
8626;SDS011;4351;51.422;6.794;2022-07-23T22:31:45;8.37;;;5.30;;
8626;SDS011;4351;51.422;6.794;2022-07-23T22:34:13;8.30;;;5.40;;
8626;SDS011;4351;51.422;6.794;2022-07-23T22:36:41;6.10;;;4.00;;
8626;SDS011;4351;51.422;6.794;2022-07-23T22:39:10;5.20;;;4.33;;
8626;SDS011;4351;51.422;6.794;2022-07-23T22:41:38;4.47;;;3.97;;
8626;SDS011;4351;51.422;6.794;2022-07-23T22:44:06;6.07;;;3.83;;
8626;SDS011;4351;51.422;6.794;2022-07-23T22:46:36;6.17;;;4.30;;
8626;SDS011;4351;51.422;6.794;2022-07-23T22:49:04;6.70;;;4.40;;
8626;SDS011;4351;51.422;6.794;2022-07-23T22:51:35;7.27;;;4.43;;
8626;SDS011;4351;51.422;6.794;2022-07-23T22:54:04;7.30;;;4.33;;
8626;SDS011;4351;51.422;6.794;2022-07-23T22:56:32;6.90;;;4.17;;
8626;SDS011;4351;51.422;6.794;2022-07-23T22:59:00;6.10;;;3.97;;
8626;SDS011;4351;51.422;6.794;2022-07-23T23:01:50;7.47;;;4.43;;
8626;SDS011;4351;51.422;6.794;2022-07-23T23:04:18;5.13;;;4.20;;
8626;SDS011;4351;51.422;6.794;2022-07-23T23:06:47;7.37;;;4.40;;
8626;SDS011;4351;51.422;6.794;2022-07-23T23:09:15;6.63;;;4.03;;
8626;SDS011;4351;51.422;6.794;2022-07-23T23:11:43;6.37;;;4.00;;
8626;SDS011;4351;51.422;6.794;2022-07-23T23:14:11;7.17;;;4.10;;
8626;SDS011;4351;51.422;6.794;2022-07-23T23:16:40;6.53;;;4.33;;
8626;SDS011;4351;51.422;6.794;2022-07-23T23:19:12;5.53;;;4.70;;
8626;SDS011;4351;51.422;6.794;2022-07-23T23:21:42;4.67;;;3.90;;
8626;SDS011;4351;51.422;6.794;2022-07-23T23:24:10;7.93;;;5.27;;
8626;SDS011;4351;51.422;6.794;2022-07-23T23:26:38;5.57;;;4.17;;
8626;SDS011;4351;51.422;6.794;2022-07-23T23:29:07;4.57;;;3.97;;
8626;SDS011;4351;51.422;6.794;2022-07-23T23:31:35;8.17;;;5.23;;
8626;SDS011;4351;51.422;6.794;2022-07-23T23:34:03;6.80;;;3.80;;
8626;SDS011;4351;51.422;6.794;2022-07-23T23:36:33;5.90;;;3.73;;
8626;SDS011;4351;51.422;6.794;2022-07-23T23:39:01;5.60;;;4.43;;
8626;SDS011;4351;51.422;6.794;2022-07-23T23:41:32;6.57;;;4.20;;
8626;SDS011;4351;51.422;6.794;2022-07-23T23:44:00;7.13;;;4.20;;
8626;SDS011;4351;51.422;6.794;2022-07-23T23:46:28;9.07;;;4.40;;
8626;SDS011;4351;51.422;6.794;2022-07-23T23:48:56;6.57;;;4.67;;
8626;SDS011;4351;51.422;6.794;2022-07-23T23:51:25;6.43;;;4.20;;
8626;SDS011;4351;51.422;6.794;2022-07-23T23:53:55;5.23;;;4.30;;
8626;SDS011;4351;51.422;6.794;2022-07-23T23:56:23;5.57;;;4.10;;
8626;SDS011;4351;51.422;6.794;2022-07-23T23:58:53;5.63;;;4.00;;
